Terminal Aerodrome Forecast
Issued by NWS Cleveland, OH

Home | Current Version | Previous Version | Graphics & Text | Print | Product List | Glossary On
Versions: 1 2 3 4 5 6 7 8 9 10 11 12 13 14 15 16 17 18 19
919
FTUS41 KCLE 201141
TAFYNG
TAF
KYNG 201141Z 2012/2112 16005KT P6SM SCT020 BKN120
     FM202300 18008KT P6SM VCSH BKN040
      TEMPO 2023/2102 5SM -SHRA BKN025
     FM210200 VRB05KT 5SM BR VCSH OVC008
     FM210500 35005KT 3SM BR OVC005=

USA.gov is the U.S. government's official web portal to all federal, state and local government web resources and services.